createdAt,value
2018-04-26T00:01:07.051Z,8.10
2018-04-26T00:03:35.411Z,8.00
2018-04-26T00:06:04.013Z,8.00
2018-04-26T00:08:33.156Z,8.00
2018-04-26T00:11:01.688Z,8.00
2018-04-26T00:13:30.071Z,8.00
2018-04-26T00:15:59.219Z,8.10
2018-04-26T00:18:28.828Z,8.10
2018-04-26T00:20:57.200Z,8.10
2018-04-26T00:23:25.593Z,8.10
2018-04-26T00:25:53.951Z,8.20
2018-04-26T00:28:22.343Z,8.30
2018-04-26T00:30:50.752Z,8.30
2018-04-26T00:33:19.121Z,8.40
2018-04-26T00:35:47.482Z,8.40
2018-04-26T00:38:15.975Z,8.40
2018-04-26T00:40:44.350Z,8.30
2018-04-26T00:43:13.480Z,8.30
2018-04-26T00:45:41.859Z,8.20
2018-04-26T00:48:11.202Z,8.20
2018-04-26T00:50:39.675Z,8.20
2018-04-26T00:53:08.076Z,8.20
2018-04-26T00:55:36.484Z,8.20
2018-04-26T00:58:06.651Z,8.20
2018-04-26T01:00:35.903Z,8.20
2018-04-26T01:03:04.295Z,8.20
2018-04-26T01:05:32.717Z,8.30
2018-04-26T01:08:01.248Z,8.30
2018-04-26T01:10:29.823Z,8.30
2018-04-26T01:12:58.367Z,8.30
2018-04-26T01:15:26.732Z,8.30
2018-04-26T01:17:55.899Z,8.30
2018-04-26T01:20:24.259Z,8.30
2018-04-26T01:22:52.619Z,8.30
2018-04-26T01:25:20.999Z,8.30
2018-04-26T01:27:49.587Z,8.20
2018-04-26T01:30:18.271Z,8.20
2018-04-26T01:32:46.657Z,8.10
2018-04-26T01:35:15.778Z,8.10
2018-04-26T01:37:48.959Z,8.10
2018-04-26T01:40:17.343Z,8.20
2018-04-26T01:42:45.770Z,8.20
2018-04-26T01:45:14.121Z,8.10
2018-04-26T01:47:43.404Z,8.10
2018-04-26T01:50:12.661Z,8.10
2018-04-26T01:52:41.153Z,8.10
2018-04-26T01:55:09.715Z,8.00
2018-04-26T01:57:38.088Z,8.00
2018-04-26T02:00:07.203Z,8.00
2018-04-26T02:02:36.547Z,7.80
2018-04-26T02:05:04.955Z,7.80
2018-04-26T02:07:33.429Z,7.70
2018-04-26T02:10:02.585Z,7.60
2018-04-26T02:12:30.949Z,7.60
2018-04-26T02:14:59.487Z,7.70
2018-04-26T02:17:28.631Z,7.70
2018-04-26T02:19:57.067Z,7.70
2018-04-26T02:22:25.487Z,7.70
2018-04-26T02:24:54.441Z,7.70
2018-04-26T02:27:22.791Z,7.70
2018-04-26T02:29:51.199Z,7.80
2018-04-26T02:32:19.579Z,7.80
2018-04-26T02:34:48.102Z,7.80
2018-04-26T02:37:16.474Z,7.80
2018-04-26T02:39:45.953Z,7.70
2018-04-26T02:42:14.331Z,7.60
2018-04-26T02:44:42.727Z,7.60
2018-04-26T02:47:11.911Z,7.50
2018-04-26T02:49:41.106Z,7.40
2018-04-26T02:52:09.539Z,7.40
2018-04-26T02:54:37.898Z,7.40
2018-04-26T02:57:06.439Z,7.50
2018-04-26T02:59:35.591Z,7.40
2018-04-26T03:02:03.991Z,7.40
2018-04-26T03:04:32.366Z,7.40
2018-04-26T03:07:00.755Z,7.40
2018-04-26T03:09:29.312Z,7.40
2018-04-26T03:11:57.851Z,7.40
2018-04-26T03:14:26.311Z,7.50
2018-04-26T03:16:55.499Z,7.40
2018-04-26T03:19:24.913Z,7.40
2018-04-26T03:21:53.290Z,7.40
2018-04-26T03:24:21.783Z,7.50
2018-04-26T03:26:50.186Z,7.50
2018-04-26T03:29:18.997Z,7.40
2018-04-26T03:31:50.794Z,7.40
2018-04-26T03:34:19.170Z,7.40
2018-04-26T03:36:47.519Z,7.40
2018-04-26T03:39:15.947Z,7.40
2018-04-26T03:41:44.300Z,7.40
2018-04-26T03:44:13.447Z,7.30
2018-04-26T03:46:41.842Z,7.30
2018-04-26T03:49:10.227Z,7.20
2018-04-26T03:51:38.567Z,7.20
2018-04-26T03:54:09.523Z,7.20
2018-04-26T03:56:38.030Z,7.20
2018-04-26T03:59:06.463Z,7.20
2018-04-26T04:01:46.783Z,7.10
2018-04-26T04:04:27.027Z,7.10
2018-04-26T04:06:55.398Z,7.00
2018-04-26T04:09:23.923Z,7.00
2018-04-26T04:11:52.449Z,7.00
2018-04-26T04:14:22.144Z,7.00
2018-04-26T04:16:50.643Z,7.00
2018-04-26T04:19:19.013Z,7.00
2018-04-26T04:21:48.200Z,7.00
2018-04-26T04:24:16.620Z,7.00
2018-04-26T04:26:45.740Z,7.00
2018-04-26T04:29:14.165Z,7.00
2018-04-26T04:31:42.520Z,7.00
2018-04-26T04:34:10.887Z,7.00
2018-04-26T04:36:39.966Z,7.10
2018-04-26T04:39:08.441Z,7.20
2018-04-26T04:41:36.814Z,7.30
2018-04-26T04:44:05.367Z,7.30
2018-04-26T04:46:33.737Z,7.20
2018-04-26T04:49:02.170Z,7.20
2018-04-26T04:51:30.578Z,7.20
2018-04-26T04:53:59.112Z,7.20
2018-04-26T04:56:28.330Z,7.30
2018-04-26T04:58:56.823Z,7.30
2018-04-26T05:01:25.167Z,7.40
2018-04-26T05:03:53.563Z,7.40
2018-04-26T05:06:21.943Z,7.50
2018-04-26T05:08:50.343Z,7.50
2018-04-26T05:11:18.726Z,7.50
2018-04-26T05:13:47.113Z,7.60
2018-04-26T05:16:15.567Z,7.70
2018-04-26T05:18:43.947Z,7.80
2018-04-26T05:21:12.419Z,7.90
2018-04-26T05:23:41.585Z,7.80
2018-04-26T05:26:09.955Z,7.80
2018-04-26T05:28:39.489Z,7.70
2018-04-26T05:31:07.955Z,7.70
2018-04-26T05:33:37.986Z,7.50
2018-04-26T05:36:06.344Z,7.50
2018-04-26T05:38:34.768Z,7.70
2018-04-26T05:41:03.892Z,8.00
2018-04-26T05:43:33.658Z,8.00
2018-04-26T05:46:02.206Z,8.20
2018-04-26T05:48:30.634Z,8.50
2018-04-26T05:50:58.999Z,8.90
2018-04-26T05:53:27.388Z,9.30
2018-04-26T05:55:55.976Z,9.70
2018-04-26T05:58:24.341Z,9.70
2018-04-26T06:00:52.880Z,9.50
2018-04-26T06:03:22.188Z,9.30
2018-04-26T06:05:50.743Z,9.20
2018-04-26T06:08:19.131Z,9.20
2018-04-26T06:10:47.545Z,9.10
2018-04-26T06:13:16.677Z,9.30
2018-04-26T06:15:46.016Z,9.70
2018-04-26T06:18:14.371Z,9.70
2018-04-26T06:20:43.587Z,11.00
2018-04-26T06:23:11.980Z,11.00
2018-04-26T06:25:40.520Z,11.60
2018-04-26T06:28:09.051Z,12.20
2018-04-26T06:30:37.408Z,12.70
2018-04-26T06:33:05.767Z,12.80
2018-04-26T06:35:35.639Z,12.80
2018-04-26T06:38:04.003Z,12.70
2018-04-26T06:40:32.588Z,12.60
2018-04-26T06:43:01.883Z,12.50
2018-04-26T06:45:30.296Z,12.40
2018-04-26T06:47:58.703Z,12.20
2018-04-26T06:50:27.081Z,11.90
2018-04-26T06:52:55.453Z,11.70
2018-04-26T06:55:23.850Z,12.30
2018-04-26T06:57:53.912Z,13.10
2018-04-26T07:00:22.397Z,13.60
2018-04-26T07:02:50.711Z,13.40
2018-04-26T07:05:19.103Z,12.90
2018-04-26T07:07:47.507Z,12.90
2018-04-26T07:10:15.871Z,12.90
2018-04-26T07:12:44.258Z,12.80
2018-04-26T07:15:12.788Z,12.80
2018-04-26T07:17:41.967Z,13.30
2018-04-26T07:20:10.506Z,13.30
2018-04-26T07:22:38.884Z,13.20
2018-04-26T07:25:08.223Z,13.80
2018-04-26T07:27:36.660Z,13.80
2018-04-26T07:30:05.836Z,14.30
2018-04-26T07:32:34.214Z,14.30
2018-04-26T07:35:02.571Z,14.50
2018-04-26T07:37:31.907Z,14.90
2018-04-26T07:40:01.076Z,16.30
2018-04-26T07:42:29.437Z,16.20
2018-04-26T07:44:57.815Z,16.30
2018-04-26T07:47:26.233Z,16.00
2018-04-26T07:49:54.608Z,16.30
2018-04-26T07:52:22.972Z,16.00
2018-04-26T07:54:51.791Z,15.70
2018-04-26T07:57:22.436Z,15.00
2018-04-26T07:59:51.599Z,14.90
2018-04-26T08:02:20.059Z,14.90
2018-04-26T08:04:48.620Z,14.90
2018-04-26T08:07:17.811Z,14.50
2018-04-26T08:09:46.199Z,14.50
2018-04-26T08:12:14.607Z,14.80
2018-04-26T08:14:43.879Z,15.00
2018-04-26T08:17:12.856Z,14.90
2018-04-26T08:19:42.668Z,15.50
2018-04-26T08:22:11.077Z,16.20
2018-04-26T08:24:40.259Z,16.70
2018-04-26T08:27:08.692Z,16.70
2018-04-26T08:29:37.088Z,16.10
2018-04-26T08:32:05.455Z,15.80
2018-04-26T08:34:34.625Z,14.80
2018-04-26T08:37:03.116Z,14.70
2018-04-26T08:39:32.928Z,15.30
2018-04-26T08:42:01.312Z,15.80
2018-04-26T08:44:29.712Z,15.70
2018-04-26T08:46:58.884Z,15.30
2018-04-26T08:49:27.281Z,15.30
2018-04-26T08:51:55.655Z,15.70
2018-04-26T08:54:24.200Z,15.40
2018-04-26T08:56:52.904Z,15.50
2018-04-26T08:59:22.028Z,17.20
2018-04-26T09:01:50.451Z,17.20
2018-04-26T09:04:18.850Z,16.90
2018-04-26T09:06:48.023Z,15.90
2018-04-26T09:09:16.435Z,15.90
2018-04-26T09:11:45.575Z,15.10
2018-04-26T09:14:13.984Z,15.20
2018-04-26T09:16:42.535Z,14.90
2018-04-26T09:19:12.679Z,14.60
2018-04-26T09:21:41.105Z,14.60
2018-04-26T09:24:09.489Z,14.80
2018-04-26T09:26:38.053Z,15.00
2018-04-26T09:29:06.434Z,15.20
2018-04-26T09:31:34.861Z,15.30
2018-04-26T09:34:03.284Z,15.50
2018-04-26T09:36:32.616Z,15.20
2018-04-26T09:39:01.024Z,15.10
2018-04-26T09:41:31.099Z,14.60
2018-04-26T09:43:59.506Z,14.60
2018-04-26T09:46:28.079Z,14.20
2018-04-26T09:48:56.467Z,13.80
2018-04-26T09:51:24.822Z,13.50
2018-04-26T09:53:53.248Z,13.30
2018-04-26T09:56:21.807Z,13.00
2018-04-26T09:58:50.800Z,12.80
2018-04-26T10:01:19.982Z,12.60
2018-04-26T10:03:54.511Z,12.30
2018-04-26T10:06:29.707Z,12.10
2018-04-26T10:08:58.129Z,12.00
2018-04-26T10:11:26.540Z,12.00
2018-04-26T10:13:54.923Z,12.00
2018-04-26T10:16:23.470Z,12.00
2018-04-26T10:18:51.890Z,12.10
2018-04-26T10:21:20.459Z,12.10
2018-04-26T10:23:48.811Z,12.10
2018-04-26T10:26:17.764Z,12.10
2018-04-26T10:28:46.207Z,11.90
2018-04-26T10:31:15.347Z,11.40
2018-04-26T10:33:43.735Z,11.30
2018-04-26T10:36:13.103Z,11.30
2018-04-26T10:38:42.243Z,11.40
2018-04-26T10:41:10.627Z,11.30
2018-04-26T10:43:39.032Z,11.40
2018-04-26T10:46:08.231Z,11.40
2018-04-26T10:48:37.935Z,11.50
2018-04-26T10:51:06.306Z,11.60
2018-04-26T10:53:34.700Z,11.70
2018-04-26T10:56:03.117Z,11.60
2018-04-26T10:58:31.511Z,11.60
2018-04-26T11:00:59.940Z,11.60
2018-04-26T11:03:28.323Z,11.60
2018-04-26T11:05:56.871Z,11.70
2018-04-26T11:08:26.043Z,11.60
2018-04-26T11:10:55.207Z,11.30
2018-04-26T11:13:23.612Z,11.30
2018-04-26T11:15:52.164Z,11.00
2018-04-26T11:18:21.295Z,10.20
2018-04-26T11:20:49.731Z,10.20
2018-04-26T11:23:18.162Z,10.20
2018-04-26T11:25:46.511Z,10.40
2018-04-26T11:28:16.575Z,11.20
2018-04-26T11:30:44.972Z,11.20
2018-04-26T11:33:13.330Z,11.60
2018-04-26T11:35:41.757Z,12.00
2018-04-26T11:38:10.184Z,12.50
2018-04-26T11:40:39.316Z,13.10
2018-04-26T11:43:07.823Z,13.10
2018-04-26T11:45:36.199Z,13.50
2018-04-26T11:48:04.702Z,13.70
2018-04-26T11:50:33.147Z,13.90
2018-04-26T11:53:01.528Z,13.90
2018-04-26T11:55:29.978Z,13.90
2018-04-26T11:57:58.375Z,13.70
2018-04-26T12:00:26.729Z,13.50
2018-04-26T12:02:55.123Z,13.20
2018-04-26T12:05:23.731Z,12.80
2018-04-26T12:07:52.309Z,12.50
2018-04-26T12:10:20.663Z,12.50
2018-04-26T12:12:49.059Z,12.70
2018-04-26T12:15:17.487Z,12.80
2018-04-26T12:17:46.594Z,13.00
2018-04-26T12:20:15.020Z,13.00
2018-04-26T12:22:43.400Z,13.20
2018-04-26T12:25:11.995Z,13.20
2018-04-26T12:27:40.425Z,13.20
2018-04-26T12:30:08.804Z,13.30
2018-04-26T12:32:37.212Z,13.40
2018-04-26T12:35:05.794Z,13.50
2018-04-26T12:37:34.175Z,13.70
2018-04-26T12:40:02.707Z,13.90
2018-04-26T12:42:31.171Z,13.90
2018-04-26T12:44:59.667Z,13.80
2018-04-26T12:47:28.865Z,13.40
2018-04-26T12:49:57.227Z,13.40
2018-04-26T12:52:25.614Z,13.40
2018-04-26T12:54:54.190Z,13.40
2018-04-26T12:57:22.586Z,13.40
2018-04-26T12:59:51.007Z,13.10
2018-04-26T13:02:19.384Z,13.10
2018-04-26T13:04:48.118Z,13.10
2018-04-26T13:07:16.647Z,13.20
2018-04-26T13:09:44.983Z,13.40
2018-04-26T13:12:14.130Z,13.50
2018-04-26T13:14:42.699Z,13.40
2018-04-26T13:17:12.038Z,13.70
2018-04-26T13:19:40.457Z,13.60
2018-04-26T13:22:08.960Z,13.90
2018-04-26T13:24:37.507Z,14.10
2018-04-26T13:27:06.721Z,14.30
2018-04-26T13:29:35.120Z,14.30
2018-04-26T13:32:04.271Z,14.50
2018-04-26T13:34:33.474Z,14.40
2018-04-26T13:37:01.943Z,14.40
2018-04-26T13:39:30.307Z,14.40
2018-04-26T13:41:58.704Z,14.40
2018-04-26T13:44:28.878Z,14.40
2018-04-26T13:46:57.289Z,14.30
2018-04-26T13:49:26.423Z,13.80
2018-04-26T13:51:55.916Z,13.80
2018-04-26T13:54:24.716Z,13.80
2018-04-26T13:56:54.115Z,13.60
2018-04-26T13:59:23.442Z,13.50
2018-04-26T14:01:51.819Z,13.50
2018-04-26T14:04:20.179Z,13.50
2018-04-26T14:06:49.035Z,13.50
2018-04-26T14:09:17.415Z,13.40
2018-04-26T14:11:45.795Z,13.20
2018-04-26T14:14:14.319Z,13.00
2018-04-26T14:16:42.886Z,12.90
2018-04-26T14:19:12.994Z,13.00
2018-04-26T14:21:41.438Z,12.90
2018-04-26T14:24:09.867Z,12.90
2018-04-26T14:26:38.423Z,12.90
2018-04-26T14:29:06.803Z,13.00
2018-04-26T14:31:35.216Z,12.80
2018-04-26T14:34:03.611Z,12.70
2018-04-26T14:36:31.989Z,12.60
2018-04-26T14:39:00.392Z,12.70
2018-04-26T14:41:29.167Z,12.80
2018-04-26T14:43:57.711Z,12.90
2018-04-26T14:46:27.037Z,13.10
2018-04-26T14:48:55.607Z,13.10
2018-04-26T14:51:24.155Z,13.20
2018-04-26T14:53:52.521Z,13.40
2018-04-26T14:56:20.927Z,13.30
2018-04-26T14:58:49.319Z,13.20
2018-04-26T15:01:17.704Z,13.20
2018-04-26T15:03:47.812Z,13.20
2018-04-26T15:06:16.185Z,13.10
2018-04-26T15:08:44.771Z,13.00
2018-04-26T15:11:13.167Z,12.90
2018-04-26T15:13:41.565Z,12.80
2018-04-26T15:16:10.108Z,12.80
2018-04-26T15:18:38.478Z,12.80
2018-04-26T15:23:32.820Z,13.00
2018-04-26T15:26:01.235Z,13.10
2018-04-26T15:28:29.644Z,13.10
2018-04-26T15:30:58.003Z,13.10
2018-04-26T15:33:26.403Z,13.10
2018-04-26T15:35:54.796Z,12.90
2018-04-26T15:38:24.671Z,12.80
2018-04-26T15:40:53.148Z,12.80
2018-04-26T15:43:21.520Z,12.80
2018-04-26T15:45:49.943Z,12.80
2018-04-26T15:48:20.683Z,12.50
2018-04-26T15:50:52.588Z,12.50
2018-04-26T15:53:32.672Z,12.50
2018-04-26T15:56:13.588Z,12.50
2018-04-26T16:02:19.332Z,12.60
2018-04-26T16:04:59.524Z,12.60
2018-04-26T16:07:54.468Z,12.40
2018-04-26T16:10:40.276Z,12.30
2018-04-26T16:13:26.185Z,12.10
2018-04-26T16:19:27.931Z,12.00
2018-04-26T16:22:26.863Z,12.00
2018-04-26T16:25:06.996Z,12.00
2018-04-26T16:27:47.217Z,12.00
2018-04-26T16:30:27.527Z,11.80
2018-04-26T16:33:07.687Z,11.70
2018-04-26T16:35:47.863Z,11.50
2018-04-26T16:38:28.784Z,11.50
2018-04-26T16:40:57.341Z,11.30
2018-04-26T16:43:25.907Z,11.20
2018-04-26T16:45:54.343Z,11.10
2018-04-26T16:48:23.926Z,11.00
2018-04-26T16:50:52.540Z,10.90
2018-04-26T16:53:21.640Z,10.90
2018-04-26T16:55:50.102Z,10.80
2018-04-26T16:58:19.268Z,10.70
2018-04-26T17:00:47.695Z,10.70
2018-04-26T17:03:16.123Z,10.80
2018-04-26T17:05:44.903Z,10.70
2018-04-26T17:08:13.283Z,10.70
2018-04-26T17:10:42.638Z,10.70
2018-04-26T17:13:11.803Z,10.70
2018-04-26T17:15:40.196Z,10.70
2018-04-26T17:18:08.751Z,10.70
2018-04-26T17:20:37.227Z,10.70
2018-04-26T17:23:06.644Z,10.70
2018-04-26T17:25:35.063Z,10.70
2018-04-26T17:28:04.674Z,10.60
2018-04-26T17:30:33.002Z,10.60
2018-04-26T17:33:01.467Z,10.60
2018-04-26T17:35:29.862Z,10.60
2018-04-26T17:37:58.272Z,10.70
2018-04-26T17:40:27.444Z,10.60
2018-04-26T17:42:56.626Z,10.60
2018-04-26T17:45:25.055Z,10.60
2018-04-26T17:47:53.447Z,10.70
2018-04-26T17:50:23.500Z,10.90
2018-04-26T17:52:51.938Z,10.80
2018-04-26T17:55:20.344Z,10.80
2018-04-26T17:57:48.739Z,10.60
2018-04-26T18:00:17.132Z,10.30
2018-04-26T18:02:45.511Z,10.10
2018-04-26T18:05:14.406Z,9.90
2018-04-26T18:07:43.634Z,9.60
2018-04-26T18:10:12.017Z,9.60
2018-04-26T18:12:41.862Z,9.40
2018-04-26T18:15:10.462Z,9.30
2018-04-26T18:17:38.896Z,9.10
2018-04-26T18:20:08.571Z,8.80
2018-04-26T18:22:36.694Z,8.70
2018-04-26T18:25:05.366Z,8.70
2018-04-26T18:27:33.871Z,8.60
2018-04-26T18:30:02.955Z,8.50
2018-04-26T18:32:31.370Z,8.50
2018-04-26T18:34:59.984Z,8.40
2018-04-26T18:37:28.419Z,8.30
2018-04-26T18:39:57.728Z,8.40
2018-04-26T18:45:06.092Z,8.40
2018-04-26T18:47:34.473Z,8.40
2018-04-26T18:50:02.829Z,8.30
2018-04-26T18:52:31.243Z,8.30
2018-04-26T18:54:59.787Z,8.40
2018-04-26T18:57:29.816Z,8.50
2018-04-26T18:59:58.243Z,8.60
2018-04-26T19:02:26.656Z,8.60
2018-04-26T19:04:55.085Z,8.70
2018-04-26T19:07:23.492Z,8.70
2018-04-26T19:09:52.046Z,8.70
2018-04-26T19:12:20.556Z,8.70
2018-04-26T19:14:48.935Z,8.70
2018-04-26T19:17:17.320Z,8.80
2018-04-26T19:19:47.235Z,8.70
2018-04-26T19:22:15.855Z,8.70
2018-04-26T19:24:44.228Z,8.70
2018-04-26T19:27:12.780Z,8.70
2018-04-26T19:29:41.203Z,8.60
2018-04-26T19:32:09.751Z,8.50
2018-04-26T19:34:38.157Z,8.40
2018-04-26T19:37:06.941Z,8.40
2018-04-26T19:39:35.379Z,8.30
2018-04-26T19:42:03.857Z,8.30
2018-04-26T19:44:32.236Z,8.20
2018-04-26T19:47:01.404Z,8.20
2018-04-26T19:49:30.569Z,8.10
2018-04-26T19:51:59.920Z,8.10
2018-04-26T19:54:32.636Z,8.10
2018-04-26T19:57:01.067Z,8.00
2018-04-26T19:59:29.771Z,7.90
2018-04-26T20:01:58.227Z,7.90
2018-04-26T20:04:26.627Z,7.90
2018-04-26T20:06:54.995Z,7.90
2018-04-26T20:09:23.484Z,7.90
2018-04-26T20:11:52.018Z,7.90
2018-04-26T20:14:20.508Z,8.00
2018-04-26T20:16:50.334Z,8.00
2018-04-26T20:19:18.763Z,8.10
2018-04-26T20:21:47.138Z,8.00
2018-04-26T20:24:15.564Z,8.00
2018-04-26T20:26:43.937Z,8.00
2018-04-26T20:29:13.151Z,7.90
2018-04-26T20:31:41.716Z,7.90
2018-04-26T20:34:10.092Z,8.00
2018-04-26T20:36:38.690Z,8.00
2018-04-26T20:39:08.886Z,8.00
2018-04-26T20:41:55.675Z,8.00
2018-04-26T20:44:36.599Z,8.00
2018-04-26T20:47:05.015Z,8.00
2018-04-26T20:49:33.432Z,7.90
2018-04-26T20:52:02.963Z,7.90
2018-04-26T20:54:31.516Z,8.00
2018-04-26T20:57:00.895Z,8.00
2018-04-26T20:59:29.258Z,7.90
2018-04-26T21:01:57.808Z,7.90
2018-04-26T21:04:26.209Z,8.00
2018-04-26T21:06:54.684Z,8.00
2018-04-26T21:09:23.252Z,8.00
2018-04-26T21:11:52.441Z,8.00
2018-04-26T21:14:20.808Z,8.00
2018-04-26T21:16:49.212Z,8.00
2018-04-26T21:19:18.382Z,8.00
2018-04-26T21:21:48.106Z,8.00
2018-04-26T21:24:16.495Z,7.90
2018-04-26T21:26:44.872Z,8.00
2018-04-26T21:29:14.075Z,7.90
2018-04-26T21:31:42.640Z,7.90
2018-04-26T21:34:11.003Z,7.90
2018-04-26T21:36:39.395Z,8.00
2018-04-26T21:39:07.811Z,8.00
2018-04-26T21:41:36.976Z,7.90
2018-04-26T21:44:08.748Z,7.90
2018-04-26T21:46:37.977Z,7.90
2018-04-26T21:49:06.415Z,7.80
2018-04-26T21:51:40.636Z,7.80
2018-04-26T21:54:14.725Z,7.80
2018-04-26T21:56:48.867Z,7.70
2018-04-26T22:02:05.000Z,7.60
2018-04-26T22:04:49.067Z,7.60
2018-04-26T22:07:17.620Z,7.70
2018-04-26T22:09:46.172Z,7.70
2018-04-26T22:12:14.762Z,7.70
2018-04-26T22:14:43.161Z,7.70
2018-04-26T22:17:12.501Z,7.70
2018-04-26T22:19:41.987Z,7.60
2018-04-26T22:22:11.329Z,7.60
2018-04-26T22:24:39.686Z,7.60
2018-04-26T22:27:08.145Z,7.50
2018-04-26T22:29:36.657Z,7.50
2018-04-26T22:32:05.067Z,7.50
2018-04-26T22:34:33.469Z,7.50
2018-04-26T22:37:02.047Z,7.50
2018-04-26T22:39:30.595Z,7.50
2018-04-26T22:41:58.964Z,7.60
2018-04-26T22:44:27.360Z,7.60
2018-04-26T22:46:56.131Z,7.60
2018-04-26T22:49:24.667Z,7.60
2018-04-26T22:51:56.819Z,7.60
2018-04-26T22:54:25.187Z,7.60
2018-04-26T22:56:53.564Z,7.60
2018-04-26T22:59:22.867Z,7.60
2018-04-26T23:01:51.276Z,7.60
2018-04-26T23:04:19.645Z,7.70
2018-04-26T23:06:48.081Z,7.70
2018-04-26T23:09:17.043Z,7.80
2018-04-26T23:11:45.422Z,7.80
2018-04-26T23:14:13.815Z,7.80
2018-04-26T23:16:42.223Z,7.80
2018-04-26T23:19:10.631Z,7.90
2018-04-26T23:21:39.807Z,7.90
2018-04-26T23:24:08.178Z,7.90
2018-04-26T23:26:36.651Z,7.90
2018-04-26T23:29:05.031Z,7.90
2018-04-26T23:31:36.087Z,7.90
2018-04-26T23:34:04.491Z,7.80
2018-04-26T23:36:33.067Z,7.80
2018-04-26T23:39:01.521Z,7.80
2018-04-26T23:41:30.126Z,7.80
2018-04-26T23:43:58.511Z,7.90
2018-04-26T23:46:27.071Z,7.90
2018-04-26T23:48:55.507Z,7.80
2018-04-26T23:51:24.048Z,7.80
2018-04-26T23:53:52.535Z,7.80
2018-04-26T23:56:20.918Z,7.90
2018-04-26T23:58:49.297Z,7.90
